Time;durP1;ratioP1;P1;durP2;ratioP2;P2;SDS_P1;SDS_P2;PMS_P1;PMS_P2;Temp;Humidity;BMP_temperature;BMP_pressure;BME280_temperature;BME280_humidity;BME280_pressure;Samples;Min_cycle;Max_cycle;Signal;HPM_P1;HPM_P2
2020/12/30 00:22:28;;;;;;;24.23;10.15;;;;;;;2.12;86.00;98504.53;1696753;80;21221;31
2020/12/30 00:31:16;;;;;;;19.62;8.53;;;;;;;2.28;85.99;98503.23;1719914;81;21189;-88
2020/12/30 00:33:44;;;;;;;17.45;8.05;;;;;;;2.28;85.50;98493.82;1768255;81;21433;-88
2020/12/30 00:36:11;;;;;;;30.75;13.93;;;;;;;2.30;85.38;98504.09;1771133;80;21149;-89
2020/12/30 00:38:44;;;;;;;29.48;13.05;;;;;;;2.31;85.65;98501.53;1768984;81;21267;-90
2020/12/30 00:41:23;;;;;;;30.95;13.00;;;;;;;2.29;85.37;98490.41;1730087;81;21177;-86
2020/12/30 00:43:50;;;;;;;26.65;12.73;;;;;;;2.30;85.16;98495.11;1732601;83;21287;-90
2020/12/30 00:46:18;;;;;;;32.53;13.80;;;;;;;2.28;85.03;98489.12;1723894;82;21159;-91
2020/12/30 00:48:48;;;;;;;31.10;11.95;;;;;;;2.27;85.00;98492.53;1748708;79;21743;-83
2020/12/30 00:54:38;;;;;;;25.80;12.45;;;;;;;2.15;84.98;98489.15;1728318;78;22850;31
2020/12/30 01:00:17;;;;;;;26.20;12.53;;;;;;;2.18;84.85;98478.88;1749800;78;21168;-84
2020/12/30 01:03:20;;;;;;;32.35;13.28;;;;;;;2.21;84.86;98482.29;1733430;78;22533;-81
2020/12/30 01:21:45;;;;;;;32.75;10.82;;;;;;;2.38;85.92;98470.30;1714328;80;21158;-90
2020/12/30 01:24:13;;;;;;;24.77;10.43;;;;;;;2.42;85.99;98466.02;1715835;83;21299;-92
2020/12/30 01:41:42;;;;;;;18.57;8.35;;;;;;;2.62;85.63;98488.62;1788174;80;23132;-85
2020/12/30 01:44:10;;;;;;;18.25;8.50;;;;;;;2.59;85.43;98488.20;1799092;79;21111;-87
2020/12/30 02:15:34;;;;;;;19.32;8.30;;;;;;;2.95;84.50;98427.75;1821172;77;22591;-91
2020/12/30 02:18:02;;;;;;;18.45;8.13;;;;;;;2.87;84.22;98431.63;1809156;78;21148;-92
2020/12/30 02:20:30;;;;;;;19.32;7.30;;;;;;;2.81;84.14;98438.08;1804778;79;21294;-91
2020/12/30 02:23:07;;;;;;;19.85;7.55;;;;;;;2.72;84.64;98444.09;1804140;76;21134;31
2020/12/30 02:25:37;;;;;;;15.88;6.83;;;;;;;2.68;85.02;98439.83;1689118;81;21112;-84
2020/12/30 02:43:52;;;;;;;19.27;7.47;;;;;;;2.40;84.92;98395.46;1690695;82;21262;-75
2020/12/30 02:52:54;;;;;;;21.55;9.58;;;;;;;2.57;85.00;98414.22;1687069;82;21177;-90
2020/12/30 02:55:21;;;;;;;19.27;9.43;;;;;;;2.58;84.93;98429.18;1672528;85;21299;-89
2020/12/30 02:57:49;;;;;;;21.33;9.98;;;;;;;2.58;84.68;98425.33;1674960;84;21736;-91
2020/12/30 03:00:16;;;;;;;24.65;10.78;;;;;;;2.54;84.79;98406.52;1665638;85;21351;-89
2020/12/30 03:02:44;;;;;;;23.98;9.48;;;;;;;2.53;84.68;98401.42;1676704;84;21213;-91
2020/12/30 03:05:11;;;;;;;21.90;9.45;;;;;;;2.49;85.10;98395.44;1669797;85;21197;-91
2020/12/30 03:07:49;;;;;;;18.23;8.55;;;;;;;2.47;85.63;98394.59;1843425;77;23065;-89
2020/12/30 03:40:03;;;;;;;20.68;9.33;;;;;;;2.39;85.31;98363.83;1685937;81;21181;-87
2020/12/30 03:42:44;;;;;;;26.75;8.90;;;;;;;2.44;85.39;98352.26;1838319;77;22302;-90
2020/12/30 03:45:11;;;;;;;20.17;9.93;;;;;;;2.38;85.48;98354.85;1715153;81;21122;-90
2020/12/30 03:47:39;;;;;;;20.70;9.45;;;;;;;2.35;85.56;98354.45;1792386;80;21287;-89
2020/12/30 03:50:07;;;;;;;20.45;9.55;;;;;;;2.38;84.42;98348.44;1791925;78;21271;-90
2020/12/30 03:52:35;;;;;;;20.43;9.80;;;;;;;2.30;85.31;98335.64;1756374;80;21157;-90
2020/12/30 03:55:04;;;;;;;30.48;8.85;;;;;;;2.26;85.47;98329.26;1755046;81;21101;-88
2020/12/30 04:03:51;;;;;;;24.67;9.98;;;;;;;2.17;84.99;98338.70;1735396;78;21118;-81
2020/12/30 04:15:46;;;;;;;30.17;12.03;;;;;;;2.16;85.34;98331.84;1728630;79;21191;31
2020/12/30 04:27:50;;;;;;;31.33;13.68;;;;;;;2.25;85.46;98309.58;1743779;78;21180;-88
2020/12/30 04:30:18;;;;;;;32.67;14.78;;;;;;;2.29;85.57;98325.38;1766203;81;21145;-90
2020/12/30 04:32:45;;;;;;;36.95;16.20;;;;;;;2.29;85.42;98316.41;1768033;80;21173;-90
2020/12/30 04:35:13;;;;;;;68.40;27.17;;;;;;;2.29;85.49;98312.15;1760955;79;21587;-90
2020/12/30 04:37:43;;;;;;;47.20;18.85;;;;;;;2.29;85.28;98314.72;1781799;78;21136;-89
2020/12/30 04:40:14;;;;;;;26.68;12.00;;;;;;;2.29;85.17;98303.17;1694386;81;21331;-91
2020/12/30 04:42:42;;;;;;;20.55;9.43;;;;;;;2.25;84.89;98305.73;1660514;85;21296;-90
2020/12/30 04:45:10;;;;;;;24.52;10.13;;;;;;;2.22;85.25;98297.64;1680583;84;21139;-84
2020/12/30 05:03:46;;;;;;;22.45;9.25;;;;;;;2.36;84.94;98300.14;1727807;78;21301;-87
2020/12/30 05:06:17;;;;;;;21.10;9.68;;;;;;;2.38;84.85;98309.96;1776696;78;21619;-89
2020/12/30 05:19:17;;;;;;;20.25;8.93;;;;;;;2.45;85.57;98318.47;1788064;78;22953;-92
2020/12/30 05:22:04;;;;;;;20.68;8.70;;;;;;;2.30;85.49;98292.48;1744372;78;21156;31
2020/12/30 05:31:04;;;;;;;22.17;11.25;;;;;;;2.44;84.75;98319.34;1732496;76;21214;31
2020/12/30 05:39:51;;;;;;;19.75;11.00;;;;;;;2.51;84.78;98314.18;1741922;76;21125;-86
2020/12/30 05:42:20;;;;;;;24.82;10.55;;;;;;;2.57;85.11;98329.54;1703104;79;21675;-85
2020/12/30 05:44:51;;;;;;;24.05;8.70;;;;;;;2.63;85.30;98327.81;1767055;80;21120;-82
2020/12/30 05:50:28;;;;;;;20.65;9.98;;;;;;;2.71;85.50;98314.50;1729387;79;21165;-89
2020/12/30 05:52:55;;;;;;;24.43;9.95;;;;;;;2.79;85.28;98323.00;1708520;83;21728;-90
2020/12/30 05:55:28;;;;;;;28.98;15.50;;;;;;;2.84;85.25;98324.25;1718659;83;21272;-92
2020/12/30 05:58:02;;;;;;;26.25;12.93;;;;;;;2.88;85.08;98331.06;1683165;84;21156;-90
2020/12/30 06:03:24;;;;;;;16.77;8.63;;;;;;;2.99;85.41;98323.71;1878212;76;22666;-91
2020/12/30 06:05:53;;;;;;;;;;;;;;;2.96;85.16;98326.32;1765077;80;22166;-91
2020/12/30 06:08:32;;;;;;;19.55;8.08;;;;;;;2.95;85.25;98337.44;1737753;78;20281;-89
2020/12/30 06:11:01;;;;;;;19.45;7.75;;;;;;;2.97;84.86;98340.84;1639204;85;21187;-90
2020/12/30 06:13:34;;;;;;;20.20;8.55;;;;;;;3.00;84.86;98352.80;1645114;80;21740;-87
2020/12/30 06:16:28;;;;;;;17.82;6.80;;;;;;;3.00;84.89;98352.80;1591470;88;21218;-90
2020/12/30 06:18:57;;;;;;;16.75;7.20;;;;;;;3.04;84.56;98357.05;1641887;87;21335;-86
2020/12/30 06:21:28;;;;;;;19.70;7.65;;;;;;;3.03;84.83;98355.37;1644292;86;21309;-90
2020/12/30 06:23:56;;;;;;;24.70;7.35;;;;;;;3.07;84.52;98357.48;1642552;86;21595;-89
2020/12/30 06:26:27;;;;;;;21.45;8.75;;;;;;;3.12;84.42;98369.85;1642145;87;21640;-89
2020/12/30 06:28:55;;;;;;;20.10;9.35;;;;;;;3.07;84.62;98364.75;1640720;86;21291;-88
2020/12/30 06:31:23;;;;;;;20.82;10.95;;;;;;;3.08;84.81;98361.75;1641434;86;21312;-90
2020/12/30 06:33:51;;;;;;;22.15;10.28;;;;;;;3.14;84.68;98356.16;1640969;86;21304;-92
2020/12/30 06:36:25;;;;;;;23.05;10.28;;;;;;;3.15;84.56;98351.42;1601303;88;21196;-93
2020/12/30 06:38:53;;;;;;;22.45;11.38;;;;;;;3.16;84.50;98368.55;1616770;87;21129;-92
2020/12/30 06:41:21;;;;;;;21.30;10.30;;;;;;;3.19;84.61;98368.95;1614373;87;21184;-93
2020/12/30 06:43:54;;;;;;;22.73;11.18;;;;;;;3.23;84.65;98369.80;1620456;87;21152;-92
2020/12/30 06:46:28;;;;;;;20.50;10.60;;;;;;;3.21;84.38;98371.08;1601723;88;21180;-94
2020/12/30 06:49:00;;;;;;;;;;;;;;;3.17;84.04;98362.53;1623380;87;21170;-92
2020/12/30 06:51:40;;;;;;;24.90;11.00;;;;;;;3.12;84.18;98348.02;1617980;87;20161;-94
2020/12/30 06:54:10;;;;;;;25.10;11.57;;;;;;;3.11;84.26;98347.61;1614723;87;21323;-92
2020/12/30 06:56:46;;;;;;;35.15;15.75;;;;;;;3.09;83.77;98367.32;1586537;90;21315;-93
2020/12/30 06:59:28;;;;;;;27.13;10.98;;;;;;;3.07;83.91;98362.19;1636915;86;21299;-94
2020/12/30 07:02:01;;;;;;;18.82;9.75;;;;;;;2.94;84.75;98360.11;1637308;87;21327;-92
2020/12/30 07:04:34;;;;;;;22.02;10.32;;;;;;;2.94;84.35;98370.38;1645785;86;21114;-92
2020/12/30 07:07:19;;;;;;;22.00;9.40;;;;;;;2.95;84.17;98352.84;1621510;87;21311;-92
2020/12/30 07:31:21;;;;;;;23.35;10.78;;;;;;;3.20;84.86;98341.11;1812637;79;23925;-90
2020/12/30 07:37:27;;;;;;;30.60;12.70;;;;;;;3.37;84.56;98344.40;1709081;82;21759;-90
2020/12/30 07:40:21;;;;;;;33.05;13.28;;;;;;;3.47;84.32;98349.47;1738152;81;21157;-93
2020/12/30 07:43:30;;;;;;;29.20;13.53;;;;;;;3.37;83.76;98326.41;1704530;82;21608;-93
2020/12/30 07:46:31;;;;;;;24.40;12.33;;;;;;;3.53;84.07;98360.55;1735179;82;21318;-92
2020/12/30 07:52:22;;;;;;;24.63;11.83;;;;;;;3.56;83.64;98353.23;1678325;85;21323;-93
2020/12/30 07:54:51;;;;;;;30.35;13.75;;;;;;;3.53;83.70;98351.55;1675913;86;21664;-93
2020/12/30 08:03:54;;;;;;;31.07;12.47;;;;;;;3.58;83.52;98347.64;1711396;82;21195;-91
2020/12/30 08:06:22;;;;;;;27.15;11.75;;;;;;;3.60;83.25;98349.77;1682339;84;21192;-91
2020/12/30 08:15:12;;;;;;;27.40;12.03;;;;;;;3.76;83.82;98354.33;1670449;85;21330;-91
2020/12/30 08:17:42;;;;;;;26.25;11.65;;;;;;;3.89;83.61;98349.94;1699638;82;21180;-90
2020/12/30 08:20:09;;;;;;;29.30;12.37;;;;;;;3.99;83.72;98354.11;1688466;85;21169;-91
2020/12/30 08:22:38;;;;;;;31.70;13.28;;;;;;;4.12;83.68;98363.86;1708654;84;21842;-92
2020/12/30 08:25:05;;;;;;;32.05;13.05;;;;;;;4.24;83.32;98359.85;1705375;84;21222;-92
2020/12/30 08:30:50;;;;;;;31.97;13.90;;;;;;;4.51;82.47;98365.09;1802151;78;22918;-91
2020/12/30 08:33:40;;;;;;;25.60;13.43;;;;;;;4.54;82.24;98362.48;1731751;79;21747;-92
2020/12/30 08:40:32;;;;;;;30.72;12.58;;;;;;;4.77;82.24;98356.17;1802215;78;21129;-92
2020/12/30 08:47:02;;;;;;;22.85;11.10;;;;;;;5.03;82.30;98348.08;1772135;80;21145;-92
2020/12/30 08:49:31;;;;;;;29.00;11.53;;;;;;;5.23;82.33;98340.04;1706958;83;21255;-90
2020/12/30 08:51:58;;;;;;;18.23;10.78;;;;;;;5.36;81.61;98342.84;1764118;77;21134;-90
2020/12/30 08:54:26;;;;;;;21.50;10.35;;;;;;;5.45;80.27;98348.31;1732755;80;21153;-87
2020/12/30 08:56:58;;;;;;;22.80;11.30;;;;;;;5.55;80.49;98341.25;1770045;79;21460;-84
2020/12/30 08:59:27;;;;;;;22.37;10.68;;;;;;;5.56;79.88;98346.83;1788948;77;21159;-89
2020/12/30 09:02:24;;;;;;;22.40;11.30;;;;;;;5.59;80.00;98349.38;1737610;80;21263;-91
2020/12/30 09:05:00;;;;;;;26.95;12.80;;;;;;;5.72;79.69;98334.08;1811480;77;22896;-91
2020/12/30 09:07:27;;;;;;;23.07;11.85;;;;;;;5.73;79.47;98329.34;1811149;79;21634;-92
2020/12/30 09:10:08;;;;;;;22.35;9.73;;;;;;;5.77;79.12;98332.28;1690783;78;21151;-91
2020/12/30 09:12:39;;;;;;;21.05;10.08;;;;;;;5.83;79.77;98321.42;1607634;88;21196;-92
2020/12/30 09:15:07;;;;;;;27.10;11.68;;;;;;;5.89;79.75;98332.91;1708538;81;21164;-91
2020/12/30 09:17:35;;;;;;;22.82;10.18;;;;;;;5.95;79.61;98323.83;1785326;80;21153;-90
2020/12/30 09:20:23;;;;;;;23.92;11.35;;;;;;;5.98;79.14;98321.17;1717918;78;21152;-92
2020/12/30 09:22:53;;;;;;;25.72;11.75;;;;;;;6.06;79.04;98318.45;1680981;84;21234;-91
2020/12/30 09:25:28;;;;;;;33.75;14.63;;;;;;;6.16;79.40;98307.91;1707638;80;21165;-92
2020/12/30 09:27:57;;;;;;;29.95;13.68;;;;;;;6.33;79.89;98308.03;1763176;80;21309;-93
2020/12/30 09:30:27;;;;;;;44.63;18.32;;;;;;;6.45;78.38;98298.73;1734302;80;21327;-93
2020/12/30 09:32:56;;;;;;;35.50;17.17;;;;;;;6.55;78.83;98285.19;1731751;78;21154;-92
2020/12/30 09:35:29;;;;;;;35.85;17.45;;;;;;;6.65;78.70;98283.25;1702049;80;21168;-94
2020/12/30 09:37:59;;;;;;;40.15;17.07;;;;;;;6.75;78.23;98276.99;1711596;78;21209;-92
2020/12/30 09:40:27;;;;;;;38.20;16.40;;;;;;;6.87;78.28;98281.88;1752837;79;21299;-92
2020/12/30 09:43:23;;;;;;;39.18;16.70;;;;;;;7.01;78.35;98271.66;1750019;80;21323;-95
2020/12/30 09:46:01;;;;;;;35.75;17.10;;;;;;;7.11;77.47;98258.47;1746618;81;21292;-93
2020/12/30 09:48:29;;;;;;;34.95;17.50;;;;;;;7.33;78.24;98254.06;1705931;81;21298;-94
2020/12/30 09:50:56;;;;;;;35.33;14.95;;;;;;;7.53;77.99;98253.55;1682906;83;21314;-93
2020/12/30 09:53:24;;;;;;;24.63;11.65;;;;;;;7.71;77.33;98258.22;1708248;82;21184;-93
2020/12/30 09:55:51;;;;;;;27.98;12.65;;;;;;;7.85;74.66;98253.13;1704301;82;21324;-94
2020/12/30 09:58:19;;;;;;;24.12;10.55;;;;;;;8.02;76.74;98250.05;1710364;82;21297;-94
2020/12/30 10:00:46;;;;;;;23.60;10.72;;;;;;;8.00;75.19;98243.65;1678955;84;21587;-94
2020/12/30 10:03:13;;;;;;;21.00;10.78;;;;;;;8.01;74.46;98236.27;1731844;81;21150;-94
2020/12/30 10:05:41;;;;;;;24.82;11.10;;;;;;;8.06;73.96;98229.23;1748811;80;21157;-95
2020/12/30 10:08:08;;;;;;;25.92;11.57;;;;;;;8.10;75.52;98238.61;1715894;83;21163;-94
2020/12/30 10:10:36;;;;;;;24.52;12.47;;;;;;;7.82;74.79;98197.56;1732965;83;21127;-94
2020/12/30 10:13:03;;;;;;;31.87;14.85;;;;;;;8.08;75.08;98230.04;1737737;81;21553;-95
2020/12/30 10:15:30;;;;;;;29.10;13.62;;;;;;;8.08;74.46;98230.48;1736481;81;21589;-95
2020/12/30 10:17:59;;;;;;;35.10;14.87;;;;;;;8.14;74.16;98231.16;1735411;81;21297;-95
2020/12/30 10:20:26;;;;;;;33.53;12.65;;;;;;;8.14;73.23;98225.13;1802226;77;21162;-94
2020/12/30 10:22:53;;;;;;;36.88;12.35;;;;;;;8.18;74.06;98216.38;1806730;78;21541;-95
2020/12/30 10:25:21;;;;;;;33.63;14.07;;;;;;;8.21;74.22;98219.31;1809294;78;22462;-93
2020/12/30 10:27:48;;;;;;;24.18;11.22;;;;;;;8.20;73.24;98214.59;1805187;77;21257;-94
2020/12/30 10:30:16;;;;;;;28.20;12.82;;;;;;;8.27;74.48;98210.07;1811491;78;21300;-93
2020/12/30 10:32:43;;;;;;;30.72;13.20;;;;;;;8.38;74.08;98204.13;1808186;77;21127;-93
2020/12/30 10:35:10;;;;;;;25.15;11.25;;;;;;;8.51;75.53;98201.57;1816183;77;21267;-94
2020/12/30 10:37:38;;;;;;;25.00;11.28;;;;;;;8.66;75.57;98199.42;1766394;81;21154;-91
2020/12/30 10:40:05;;;;;;;27.65;13.62;;;;;;;8.75;74.75;98200.41;1768170;81;21182;-92
2020/12/30 10:42:35;;;;;;;27.40;12.98;;;;;;;8.85;75.20;98197.91;1660816;77;21146;-94
2020/12/30 10:45:03;;;;;;;21.73;10.90;;;;;;;9.01;75.11;98190.94;1713540;82;21213;-93
2020/12/30 10:47:31;;;;;;;29.15;13.22;;;;;;;9.11;74.27;98185.84;1697851;79;22424;-92
2020/12/30 10:49:59;;;;;;;28.67;12.90;;;;;;;9.24;73.40;98191.47;1690127;83;21311;-91
2020/12/30 10:52:29;;;;;;;33.58;13.88;;;;;;;9.42;73.85;98179.16;1698403;83;21308;-93
2020/12/30 10:54:57;;;;;;;35.70;14.80;;;;;;;9.58;72.15;98181.22;1726685;80;21177;-93
2020/12/30 10:57:25;;;;;;;26.70;14.10;;;;;;;9.75;73.05;98171.92;1711207;83;21328;-94
2020/12/30 10:59:52;;;;;;;24.18;12.53;;;;;;;9.93;72.96;98174.29;1710002;83;21352;-91
2020/12/30 11:02:20;;;;;;;22.77;11.33;;;;;;;10.19;72.30;98178.13;1716592;83;21280;-92
2020/12/30 11:04:48;;;;;;;22.60;11.50;;;;;;;10.36;72.24;98178.33;1707634;83;21181;-92
2020/12/30 11:07:15;;;;;;;25.48;11.40;;;;;;;10.55;72.74;98164.17;1708876;81;21181;-92
2020/12/30 11:09:44;;;;;;;23.52;11.45;;;;;;;10.66;72.28;98178.03;1706296;82;21259;-90
2020/12/30 11:12:13;;;;;;;25.52;11.10;;;;;;;10.77;71.36;98173.71;1714736;83;21182;-88
2020/12/30 11:14:40;;;;;;;21.70;10.78;;;;;;;10.70;67.48;98170.50;1663046;84;21359;-88
2020/12/30 11:17:08;;;;;;;24.20;11.95;;;;;;;10.80;69.97;98164.01;1737274;79;21237;-86
2020/12/30 11:19:35;;;;;;;36.10;14.47;;;;;;;10.88;67.82;98167.17;1737194;82;21262;-86
2020/12/30 11:22:02;;;;;;;35.28;15.32;;;;;;;10.98;69.06;98150.70;1730223;82;21325;-87
2020/12/30 11:24:29;;;;;;;46.68;16.70;;;;;;;11.06;70.54;98149.95;1718925;82;21242;-87
2020/12/30 11:26:57;;;;;;;43.65;16.02;;;;;;;11.11;69.03;98147.98;1696405;82;21305;-86
2020/12/30 11:29:24;;;;;;;35.85;14.03;;;;;;;11.15;68.89;98145.64;1727922;81;21297;-87
2020/12/30 11:31:51;;;;;;;37.65;15.30;;;;;;;11.20;68.39;98149.37;1722368;83;21289;-85
2020/12/30 11:34:18;;;;;;;39.70;17.37;;;;;;;11.38;69.78;98137.75;1719817;83;21135;-86
2020/12/30 11:36:46;;;;;;;37.45;16.23;;;;;;;11.50;67.64;98145.89;1699271;83;21113;-86
2020/12/30 11:39:13;;;;;;;45.00;19.00;;;;;;;11.62;67.71;98141.90;1695705;84;21300;-87
2020/12/30 11:41:40;;;;;;;47.13;18.05;;;;;;;11.72;68.01;98147.08;1747050;82;21106;-86
2020/12/30 11:44:07;;;;;;;35.95;15.38;;;;;;;11.73;65.97;98147.45;1730739;82;21366;-87
2020/12/30 11:46:35;;;;;;;33.55;14.78;;;;;;;11.88;66.39;98151.14;1739075;82;21293;-87
2020/12/30 11:49:02;;;;;;;29.05;14.28;;;;;;;12.05;67.23;98149.08;1732012;82;21349;-85
2020/12/30 11:51:30;;;;;;;31.73;14.93;;;;;;;12.12;65.96;98137.94;1728252;82;21316;-85
2020/12/30 11:53:58;;;;;;;31.12;15.35;;;;;;;12.18;67.13;98136.81;1741345;81;21334;-86
2020/12/30 11:56:25;;;;;;;29.72;12.23;;;;;;;12.25;66.69;98142.10;1716296;82;21209;-86
2020/12/30 11:58:52;;;;;;;29.45;12.82;;;;;;;12.51;67.23;98139.12;1733345;82;21749;-85
2020/12/30 12:01:20;;;;;;;27.10;14.18;;;;;;;13.32;64.20;98133.39;1733088;82;21251;-84
2020/12/30 12:03:47;;;;;;;29.23;11.90;;;;;;;14.24;57.94;98135.00;1696997;83;21321;-85
2020/12/30 12:06:15;;;;;;;27.85;12.33;;;;;;;15.19;61.68;98130.53;1712309;82;21383;-84
2020/12/30 12:08:43;;;;;;;33.85;14.85;;;;;;;16.16;59.48;98125.48;1693539;83;21353;-84
2020/12/30 12:11:10;;;;;;;40.43;17.15;;;;;;;17.01;57.15;98123.50;1729928;82;21196;-86
2020/12/30 12:13:38;;;;;;;37.00;14.87;;;;;;;17.85;55.29;98122.63;1732175;82;21277;-88
2020/12/30 12:16:06;;;;;;;26.02;12.50;;;;;;;18.48;51.95;98117.66;1721588;82;21748;-86
2020/12/30 12:18:33;;;;;;;24.90;12.63;;;;;;;19.07;51.07;98114.17;1728042;82;21146;-86
2020/12/30 12:21:04;;;;;;;26.73;12.15;;;;;;;19.61;50.13;98125.05;1730926;82;21182;-85
2020/12/30 12:23:31;;;;;;;23.40;12.50;;;;;;;19.84;48.55;98112.25;1744855;81;21312;-86
2020/12/30 12:25:59;;;;;;;26.12;13.25;;;;;;;20.06;43.68;98111.88;1699832;83;21324;-87
2020/12/30 12:28:46;;;;;;;22.48;13.55;;;;;;;20.54;46.48;98115.47;1684740;83;21381;-86
2020/12/30 12:31:17;;;;;;;29.25;12.63;;;;;;;20.52;46.15;98104.69;1672725;83;21345;-86
2020/12/30 12:33:44;;;;;;;21.07;12.00;;;;;;;19.65;42.15;98115.45;1712541;82;21181;-87
2020/12/30 12:36:15;;;;;;;31.30;13.58;;;;;;;19.28;45.89;98116.16;1739242;82;21263;-86
2020/12/30 12:38:43;;;;;;;24.80;12.63;;;;;;;19.02;43.73;98108.88;1738840;81;21343;-85
2020/12/30 12:41:14;;;;;;;30.05;12.47;;;;;;;18.95;46.27;98111.15;1723089;82;21304;-86
2020/12/30 12:43:42;;;;;;;39.90;14.35;;;;;;;18.51;44.45;98101.27;1725391;82;21273;-86
2020/12/30 12:46:13;;;;;;;30.15;13.93;;;;;;;18.11;46.77;98100.22;1677635;83;21294;-85
2020/12/30 12:48:41;;;;;;;31.30;13.38;;;;;;;17.60;45.67;98107.69;1728291;82;21321;-87
2020/12/30 12:51:10;;;;;;;34.65;14.70;;;;;;;17.18;47.74;98104.45;1735847;82;21181;-87
2020/12/30 12:53:38;;;;;;;25.17;13.25;;;;;;;16.77;48.51;98110.64;1726868;82;21252;-84
2020/12/30 12:56:06;;;;;;;24.77;13.65;;;;;;;16.33;48.63;98109.97;1751732;82;21670;-87
2020/12/30 12:58:33;;;;;;;29.05;14.63;;;;;;;16.05;50.07;98115.66;1742922;80;21353;-85
2020/12/30 13:01:01;;;;;;;30.35;14.20;;;;;;;15.78;50.62;98110.86;1727446;82;21338;-86
2020/12/30 13:03:29;;;;;;;29.52;13.95;;;;;;;15.46;50.73;98108.41;1717080;82;21284;-86
2020/12/30 13:05:56;;;;;;;32.42;13.10;;;;;;;15.08;52.25;98112.38;1735967;80;21405;-86
2020/12/30 13:08:24;;;;;;;29.00;14.65;;;;;;;14.84;53.38;98110.73;1715273;82;21287;-86
2020/12/30 13:10:51;;;;;;;38.80;14.73;;;;;;;14.61;53.98;98105.98;1663646;84;21818;-86
2020/12/30 13:13:20;;;;;;;39.03;16.12;;;;;;;14.43;54.79;98103.92;1688700;83;21190;-90
2020/12/30 13:15:51;;;;;;;29.23;13.85;;;;;;;14.35;55.40;98103.52;1689952;83;21202;-86
2020/12/30 13:18:18;;;;;;;28.62;13.32;;;;;;;14.00;55.67;98081.00;1694517;83;21178;-87
2020/12/30 13:20:46;;;;;;;31.48;12.85;;;;;;;14.10;56.14;98108.78;1674809;83;21342;-87
2020/12/30 13:23:13;;;;;;;20.90;10.43;;;;;;;14.03;56.44;98113.52;1716299;83;21101;-87
2020/12/30 13:25:40;;;;;;;20.08;10.28;;;;;;;13.88;56.02;98123.02;1679644;84;21364;-86
2020/12/30 13:28:07;;;;;;;21.65;9.95;;;;;;;13.82;56.86;98123.81;1708336;83;21296;-86
2020/12/30 13:30:35;;;;;;;25.40;11.90;;;;;;;13.69;56.99;98115.34;1695601;83;21130;-86
2020/12/30 13:33:02;;;;;;;21.65;11.70;;;;;;;13.64;57.11;98122.56;1704799;83;21133;-86
2020/12/30 13:35:31;;;;;;;25.50;10.88;;;;;;;13.46;57.74;98117.84;1700946;84;21275;-87
2020/12/30 13:37:58;;;;;;;21.82;10.63;;;;;;;13.39;57.75;98113.02;1704436;83;21269;-86
2020/12/30 13:40:26;;;;;;;21.05;10.08;;;;;;;13.30;58.20;98110.44;1699901;83;21160;-85
2020/12/30 13:42:53;;;;;;;23.52;10.93;;;;;;;13.19;58.33;98104.89;1709876;83;21527;-87
2020/12/30 13:45:21;;;;;;;36.03;13.32;;;;;;;13.13;58.45;98102.16;1696184;83;21290;-88
2020/12/30 13:47:48;;;;;;;29.32;12.13;;;;;;;13.06;58.64;98108.13;1707469;84;21322;-87
2020/12/30 13:50:15;;;;;;;26.50;12.63;;;;;;;12.99;58.62;98108.52;1715581;83;21412;-87
2020/12/30 13:52:43;;;;;;;27.22;12.37;;;;;;;12.94;58.76;98117.42;1678126;83;21267;-87
2020/12/30 13:55:10;;;;;;;23.80;11.22;;;;;;;12.79;59.20;98121.26;1683772;84;21185;-88
2020/12/30 13:57:37;;;;;;;81.32;32.40;;;;;;;12.67;59.53;98124.01;1666044;86;21222;-88
2020/12/30 14:00:05;;;;;;;73.50;28.67;;;;;;;12.55;59.99;98116.33;1697102;81;21173;-89
2020/12/30 14:02:33;;;;;;;125.05;51.65;;;;;;;12.44;60.17;98112.95;1687346;84;21308;-90
2020/12/30 14:05:00;;;;;;;129.40;55.98;;;;;;;12.31;60.62;98111.84;1682858;84;21264;-90
2020/12/30 14:07:29;;;;;;;69.05;31.37;;;;;;;12.20;60.86;98114.12;1691711;84;21304;-94
2020/12/30 14:09:57;;;;;;;32.23;16.52;;;;;;;12.08;61.05;98117.69;1655940;86;21316;-87
2020/12/30 14:12:24;;;;;;;36.83;16.80;;;;;;;11.97;60.83;98106.91;1704746;78;21355;-91
2020/12/30 14:14:52;;;;;;;45.50;16.75;;;;;;;11.84;61.65;98101.88;1686624;84;21323;-91
2020/12/30 14:17:19;;;;;;;36.80;15.83;;;;;;;11.74;62.13;98113.16;1719764;83;21704;-89
2020/12/30 14:19:47;;;;;;;37.90;18.12;;;;;;;11.56;62.50;98097.92;1719713;82;21287;-92
2020/12/30 14:22:14;;;;;;;37.10;17.60;;;;;;;11.46;63.67;98114.84;1708538;84;21340;-86
2020/12/30 14:24:42;;;;;;;45.83;21.30;;;;;;;11.32;63.04;98121.52;1719859;82;21286;-87
2020/12/30 14:27:09;;;;;;;45.15;19.12;;;;;;;11.18;63.74;98113.90;1733695;82;21291;-86
2020/12/30 14:29:37;;;;;;;44.50;20.30;;;;;;;11.02;64.51;98108.51;1719715;80;21254;-90
2020/12/30 14:32:04;;;;;;;48.30;22.65;;;;;;;10.89;64.14;98118.60;1695731;83;21320;-91
2020/12/30 14:34:33;;;;;;;57.60;24.77;;;;;;;10.76;63.99;98123.45;1697535;83;21315;-88
2020/12/30 14:37:01;;;;;;;57.58;26.70;;;;;;;10.64;64.88;98127.86;1701300;79;21532;-86
2020/12/30 14:39:29;;;;;;;63.60;27.30;;;;;;;10.53;66.32;98124.41;1674642;85;21264;-85
2020/12/30 14:41:58;;;;;;;70.50;27.32;;;;;;;10.43;65.64;98121.33;1697297;84;21315;-85
2020/12/30 14:44:25;;;;;;;71.07;30.48;;;;;;;10.33;65.89;98133.00;1706763;82;21623;-85
2020/12/30 14:46:53;;;;;;;88.60;30.43;;;;;;;10.24;66.18;98139.34;1665966;82;21361;-94
2020/12/30 14:49:20;;;;;;;66.60;23.55;;;;;;;10.18;66.37;98139.59;1663828;85;22328;-94
2020/12/30 14:51:52;;;;;;;61.85;24.70;;;;;;;10.11;67.14;98133.80;1663805;85;21297;-94
2020/12/30 14:54:19;;;;;;;66.55;28.00;;;;;;;10.05;66.84;98129.30;1762101;80;21278;-94
2020/12/30 14:56:53;;;;;;;94.83;30.23;;;;;;;9.98;67.06;98133.03;1791180;78;21300;-93
2020/12/30 14:59:21;;;;;;;109.25;35.50;;;;;;;9.90;68.09;98134.15;1783783;78;21262;-92
2020/12/30 15:01:52;;;;;;;105.60;37.63;;;;;;;9.85;66.99;98136.55;1784143;80;21319;-93
2020/12/30 15:04:20;;;;;;;101.25;32.70;;;;;;;9.81;67.53;98138.84;1788576;78;21265;-92
2020/12/30 15:06:48;;;;;;;100.40;34.10;;;;;;;9.76;67.49;98139.86;1786540;80;21559;-92
2020/12/30 15:09:15;;;;;;;97.47;31.82;;;;;;;9.73;68.53;98140.45;1774391;80;21294;-90
2020/12/30 15:11:44;;;;;;;78.45;29.45;;;;;;;9.70;68.25;98140.09;1713284;79;21352;-92
2020/12/30 15:14:12;;;;;;;62.15;23.47;;;;;;;9.68;68.85;98135.40;1698679;83;21343;-94
2020/12/30 15:16:39;;;;;;;72.08;25.40;;;;;;;9.70;69.06;98138.78;1710446;83;21324;-92
2020/12/30 15:19:06;;;;;;;67.35;27.45;;;;;;;9.72;69.51;98138.73;1698956;83;21311;-93
2020/12/30 15:21:34;;;;;;;85.17;30.12;;;;;;;9.74;69.65;98135.63;1695364;83;21328;-93
2020/12/30 15:24:02;;;;;;;72.67;30.85;;;;;;;9.76;69.96;98138.56;1699650;83;21347;-93
2020/12/30 15:26:29;;;;;;;93.17;32.40;;;;;;;9.78;70.17;98137.67;1697016;83;21152;-92
2020/12/30 15:28:57;;;;;;;106.17;41.98;;;;;;;9.80;70.62;98140.59;1671945;83;21316;-94
2020/12/30 15:31:24;;;;;;;156.60;69.40;;;;;;;9.79;70.68;98145.41;1675945;83;21320;-93
2020/12/30 15:33:52;;;;;;;159.52;79.27;;;;;;;9.79;70.59;98148.43;1699979;83;21348;-92
2020/12/30 15:36:19;;;;;;;172.93;96.40;;;;;;;9.71;71.55;98148.74;1706057;83;21327;-93
2020/12/30 15:38:51;;;;;;;146.20;77.17;;;;;;;9.71;71.34;98148.74;1697534;83;21880;-93
2020/12/30 15:41:19;;;;;;;102.95;49.40;;;;;;;9.68;70.73;98147.08;1770905;79;21307;-93
2020/12/30 15:43:47;;;;;;;90.80;44.70;;;;;;;9.64;70.62;98148.55;1745655;81;21173;-93
2020/12/30 15:46:15;;;;;;;88.67;44.53;;;;;;;9.61;71.18;98146.93;1779621;78;21307;-93
2020/12/30 15:48:44;;;;;;;87.00;42.38;;;;;;;9.59;71.11;98145.27;1768280;80;21291;-92
2020/12/30 15:51:16;;;;;;;83.97;38.50;;;;;;;9.57;71.55;98147.94;1765783;80;21112;-93
2020/12/30 15:53:44;;;;;;;95.32;39.23;;;;;;;9.52;71.71;98151.14;1753644;80;21212;-93
2020/12/30 15:56:14;;;;;;;102.20;43.87;;;;;;;9.46;72.33;98151.36;1778081;78;21250;-93
2020/12/30 15:58:42;;;;;;;102.85;40.95;;;;;;;9.43;70.78;98156.65;1806528;77;21310;-94
2020/12/30 16:01:10;;;;;;;88.00;40.00;;;;;;;9.37;71.14;98157.73;1827816;78;21661;-92
2020/12/30 16:03:38;;;;;;;84.80;37.53;;;;;;;9.30;71.48;98163.57;1798424;78;21312;-94
2020/12/30 16:06:06;;;;;;;96.35;39.65;;;;;;;9.24;72.76;98159.89;1788434;80;21267;-87